Главная страница
METAR-TAF:

METAR-TAF

Аэропорты :

Иркутск, Россия

широта: 52-16N, долгота: 104-19E, высота над уровнем моря: 513 м

Текущие метеонаблюдения

Эта сводка был подготовлена 33 минут назад, в 11:30 UTC
Ветер 8 Узел от юго-юго-восточный
Температура 11°C
Влажность 62%
Давление 1015 hPa
Видимость 10 км и более
Нет облачности ниже 1500 м, и нет кучево-дождевой облачности

METAR: UIII 241130Z 16004MPS CAVOK 11/04 Q1015 R12/60D NOSIG RMK QFE719/0958

Время: 20:03 (12:03 UTC)

Прогноз

Эта сводка был подготовлена 1 час и 3 минут назад, в 11:00 UTC
Прогноз действительный с 24-го 12 UTC до 25-го 12 UTC
Ветер 6 Узел от юго-юго-восточный
Видимость 10 км и более
Нет облачности ниже 1500 м, и нет кучево-дождевой облачности

TAF: UIII 241100Z 2412/2512 16003MPS CAVOK

Метеонаблюдения и прогнозы для более 4000 аэропортов (сводки METAR и TAF).

Имеющиеся станции представлены на карте желтыми и красными точками.

Чтобы увидеть название станции, наведите на нее мышь.

Затем щелкните, чтобы увидеть метеонаблюдения и метеопрогнозы.

Управление картой: чтобы увеличить масштаб, щелкните зеленые кнопки с черным крестиком; чтобы уменьшить масштаб, щелкните зеленую кнопку с тире; для просмотра соседних карт щелкайте зеленые стрелки.


METAR-TAF: